Barbados Meteorological Services
Auto gathered TAF list
Powered by Apparatus software
For Flight WS2513
Contact Number 1-(246)-535-0021/2/3/4/5/6
WEB: http://www.barbadosweather.org

**********************************************

2018/10/18 12:55
TAF TXKF 181132Z 1812/1912 27016KT 9999 SCT018 BKN050
TEMPO 1812/1815 3200 SHRA BKN015 PROB30
TEMPO 1812/1814 28016G26KT 1600 +SHRA BKN012
BECMG 1814/1816 35014KT


**********************************************
2018/10/18 12:12
TAF TLPL 181100Z 1812/1912 09018KT 9999 SCT024 SCT040
TEMPO 1812/1912 5000 SHRA FEW016CB BKN020TCU PROB30
TEMPO 1906/1912 3000 TSRA FEW005 SCT015CB


**********************************************
2018/10/18 12:26
TAF TFFR 181000Z 1812/1912 08010KT 9999 SCT030 SCT050
TEMPO 1812/1912 3000 SHRA SCT015CB SCT018TCU PROB30
TEMPO 1815/1822 10015G25KT 1000 TSRA BKN010CB
TEMPO 1902/1910 VRB03KT


**********************************************
2018/10/18 12:22
TAF TAPA 181100Z 1812/1912 07013KT 9999 SCT020 PROB40
TEMPO 1812/1818 SHRA


**********************************************
2018/10/18 15:57
TAF
AMD KPHL 181455Z 1815/1918 32010G18KT P6SM SCT050
FM182100 30010KT P6SM FEW050
FM190000 27005KT P6SM SKC
FM191400 24005KT P6SM FEW250


**********************************************
2018/10/18 16:34
TAF
AMD KORF 181532Z 1816/1912 02015G23KT P6SM SCT250
FM181700 01010KT P6SM SCT040 SCT250
FM190000 01006KT P6SM SKC
FM190600 VRB02KT P6SM SKC


**********************************************
2018/10/18 16:37
TAF
AMD KJFK 181531Z 1816/1918 32017G28KT P6SM FEW050
FM181700 30017G26KT P6SM FEW060
FM190000 30014KT P6SM FEW250
FM190200 30010KT P6SM FEW250
FM190400 27007KT P6SM SKC
FM191300 24012KT P6SM SKC


**********************************************
2018/10/18 15:04
TAF
AMD KIAD 181501Z 1815/1918 32010G18KT P6SM FEW060
FM182200 32006KT P6SM SKC
FM190000 VRB03KT P6SM SKC
FM191600 20007KT P6SM SKC


**********************************************
2018/10/18 16:33
TAF
AMD KEWR 181531Z 1816/1918 32014G23KT P6SM FEW060
FM181800 29016G24KT P6SM FEW060
FM190000 29010KT P6SM FEW250
FM190300 29006KT P6SM SKC
FM190700 VRB05KT P6SM SKC
FM191300 24010KT P6SM SKC


**********************************************
2018/10/18 12:42
TAF KCHS 181135Z 1812/1912 02013G20KT P6SM BKN035 BKN100
FM181700 05011KT P6SM BKN040
FM190000 04007KT P6SM SCT015 BKN040


**********************************************
2018/10/18 14:37
TAF
AMD KBOS 181428Z 1814/1918 30018G28KT P6SM FEW050
FM181800 30016G23KT P6SM FEW250
FM190200 28010G25KT P6SM SKC
FM190600 26008KT P6SM FEW070
FM191100 23007KT P6SM FEW140


**********************************************
2018/10/18 15:46
TAF CYYZ 181441Z 1815/1918 26006KT P6SM FEW020 BKN040
BECMG 1816/1818 27012KT BKN025
FM182300 25015KT P6SM FEW030
FM190700 25012KT P6SM SKC
FM191600 25015G25KT P6SM BKN210
RMK NXT FCST BY 181800Z


**********************************************
2018/10/18 15:42
TAF CYUL 181439Z 1815/1912 28015G25KT P6SM FEW040
FM182100 26015KT P6SM SCT040
FM190300 24012KT P6SM OVC080
FM190500 24012KT P6SM OVC030
RMK NXT FCST BY 181800Z


**********************************************
2018/10/18 15:42
TAF CYOW 181439Z 1815/1912 28012KT P6SM FEW040
FM182200 24012KT P6SM SCT100
FM190000 23008KT P6SM BKN030 BKN080
RMK NXT FCST BY 181800Z


**********************************************
2018/10/18 12:42
TAF CYMX 181138Z 1812/1912 29008KT P6SM SCT030
BECMG 1813/1815 29008G18KT
BECMG 1822/1824 25007KT
FM190300 24005KT P6SM OVC080
FM190500 24005KT P6SM -SHSN OVC030
RMK NXT FCST BY 181800Z


**********************************************